createdAt,value
2022-10-03T00:02:40.012Z,35.85
2022-10-03T00:05:25.126Z,23.60
2022-10-03T00:08:28.577Z,34.38
2022-10-03T00:11:15.006Z,25.20
2022-10-03T00:13:53.424Z,25.23
2022-10-03T00:16:47.791Z,23.80
2022-10-03T00:19:23.177Z,24.83
2022-10-03T00:21:55.821Z,28.13
2022-10-03T00:24:28.604Z,29.55
2022-10-03T00:27:16.193Z,23.67
2022-10-03T00:30:09.613Z,30.30
2022-10-03T00:32:55.388Z,24.75
2022-10-03T00:35:24.672Z,27.52
2022-10-03T00:38:12.769Z,31.17
2022-10-03T00:41:04.334Z,33.00
2022-10-03T00:46:48.716Z,25.27
2022-10-03T00:49:52.978Z,31.48
2022-10-03T00:52:42.295Z,26.60
2022-10-03T00:55:19.621Z,27.60
2022-10-03T00:58:02.939Z,29.05
2022-10-03T01:00:31.837Z,29.30
2022-10-03T01:03:11.137Z,34.45
2022-10-03T01:05:47.980Z,19.52
2022-10-03T01:08:35.682Z,43.25
2022-10-03T01:11:37.997Z,30.30
2022-10-03T01:14:45.740Z,30.23
2022-10-03T01:17:38.964Z,29.38
2022-10-03T01:20:20.654Z,22.55
2022-10-03T01:22:50.092Z,20.80
2022-10-03T01:25:18.537Z,20.55
2022-10-03T01:28:25.555Z,24.88
2022-10-03T01:31:04.615Z,31.27
2022-10-03T01:33:37.730Z,23.83
2022-10-03T01:36:25.547Z,34.83
2022-10-03T01:38:56.565Z,25.80
2022-10-03T01:41:41.990Z,31.67
2022-10-03T01:44:08.768Z,25.08
2022-10-03T01:46:38.880Z,27.38
2022-10-03T01:49:36.424Z,31.38
2022-10-03T01:52:23.197Z,25.38
2022-10-03T01:55:20.440Z,25.35
2022-10-03T01:57:54.210Z,26.77
2022-10-03T02:00:25.350Z,26.73
2022-10-03T02:03:06.227Z,28.27
2022-10-03T02:05:57.834Z,27.48
2022-10-03T02:11:11.642Z,32.28
2022-10-03T02:13:47.068Z,35.13
2022-10-03T02:16:30.929Z,40.38
2022-10-03T02:19:11.779Z,26.33
2022-10-03T02:21:55.819Z,42.53
2022-10-03T02:24:39.694Z,30.92
2022-10-03T02:27:29.494Z,23.95
2022-10-03T02:30:03.941Z,28.88
2022-10-03T02:37:08.231Z,28.80
2022-10-03T02:40:12.184Z,28.80
2022-10-03T02:43:10.276Z,28.70
2022-10-03T02:46:07.478Z,37.13
2022-10-03T02:48:54.730Z,43.63
2022-10-03T02:51:29.970Z,29.75
2022-10-03T02:54:24.043Z,21.23
2022-10-03T02:56:59.385Z,30.23
2022-10-03T03:00:03.448Z,22.05
2022-10-03T03:02:32.731Z,25.23
2022-10-03T03:05:21.811Z,20.77
2022-10-03T03:08:14.140Z,38.88
2022-10-03T03:11:18.635Z,32.17
2022-10-03T03:14:19.158Z,30.23
2022-10-03T03:17:12.043Z,33.90
2022-10-03T03:20:00.922Z,27.20
2022-10-03T03:22:56.736Z,34.20
2022-10-03T03:25:39.396Z,31.75
2022-10-03T03:28:16.200Z,32.38
2022-10-03T03:31:06.517Z,26.08
2022-10-03T03:33:52.878Z,28.20
2022-10-03T03:36:41.972Z,28.30
2022-10-03T03:39:50.131Z,38.90
2022-10-03T03:42:30.256Z,23.23
2022-10-03T03:45:29.420Z,34.22
2022-10-03T03:48:40.614Z,36.85
2022-10-03T03:51:14.270Z,27.42
2022-10-03T03:53:57.043Z,31.05
2022-10-03T03:56:37.691Z,32.83
2022-10-03T03:59:22.522Z,19.05
2022-10-03T04:01:59.698Z,31.02
2022-10-03T04:04:45.325Z,23.38
2022-10-03T04:07:49.210Z,30.13
2022-10-03T04:10:53.948Z,21.65
2022-10-03T04:13:37.766Z,31.40
2022-10-03T04:16:47.627Z,26.05
2022-10-03T04:19:49.532Z,33.70
2022-10-03T04:22:26.912Z,27.65
2022-10-03T04:25:01.168Z,33.20
2022-10-03T04:27:45.849Z,37.28
2022-10-03T04:30:14.888Z,26.65
2022-10-03T04:32:47.109Z,22.48
2022-10-03T04:35:31.794Z,29.27
2022-10-03T04:38:12.516Z,25.05
2022-10-03T04:40:57.671Z,32.28
2022-10-03T04:43:54.963Z,26.63
2022-10-03T04:46:33.684Z,25.58
2022-10-03T04:49:19.495Z,30.70
2022-10-03T04:52:16.741Z,28.92
2022-10-03T04:55:06.685Z,33.20
2022-10-03T04:57:47.389Z,27.42
2022-10-03T05:00:16.610Z,28.75
2022-10-03T05:02:52.596Z,27.20
2022-10-03T05:05:32.573Z,31.42
2022-10-03T05:08:42.441Z,31.77
2022-10-03T05:11:47.353Z,28.05
2022-10-03T05:14:27.076Z,40.15
2022-10-03T05:17:19.695Z,30.30
2022-10-03T05:20:23.837Z,20.80
2022-10-03T05:23:19.641Z,26.02
2022-10-03T05:26:16.373Z,30.00
2022-10-03T05:29:00.221Z,30.55
2022-10-03T05:34:14.380Z,25.25
2022-10-03T05:36:55.025Z,34.47
2022-10-03T05:39:27.417Z,31.42
2022-10-03T05:42:21.542Z,29.05
2022-10-03T05:44:57.345Z,25.05
2022-10-03T05:47:45.963Z,25.73
2022-10-03T05:50:28.322Z,30.08
2022-10-03T05:53:35.225Z,30.73
2022-10-03T05:56:01.996Z,28.80
2022-10-03T05:58:48.045Z,36.38
2022-10-03T06:01:34.810Z,36.60
2022-10-03T06:04:42.052Z,28.67
2022-10-03T06:07:30.493Z,27.08
2022-10-03T06:10:04.777Z,27.88
2022-10-03T06:12:52.088Z,30.17
2022-10-03T06:16:00.644Z,36.53
2022-10-03T06:18:57.755Z,27.67
2022-10-03T06:21:49.676Z,32.95
2022-10-03T06:24:40.549Z,27.45
2022-10-03T06:27:25.296Z,23.33
2022-10-03T06:30:23.093Z,31.52
2022-10-03T06:32:58.414Z,28.45
2022-10-03T06:35:48.167Z,26.48
2022-10-03T06:38:34.776Z,29.00
2022-10-03T06:41:25.872Z,33.92
2022-10-03T06:43:57.219Z,31.48
2022-10-03T06:46:51.596Z,29.95
2022-10-03T06:49:32.260Z,30.42
2022-10-03T06:52:16.899Z,30.75
2022-10-03T06:54:55.348Z,36.08
2022-10-03T06:57:52.778Z,24.83
2022-10-03T07:00:41.402Z,26.77
2022-10-03T07:03:27.782Z,28.30
2022-10-03T07:06:11.591Z,34.35
2022-10-03T07:09:02.288Z,30.75
2022-10-03T07:11:31.275Z,35.53
2022-10-03T07:14:25.045Z,29.83
2022-10-03T07:17:04.514Z,30.98
2022-10-03T07:19:49.162Z,29.75
2022-10-03T07:22:30.583Z,25.65
2022-10-03T07:25:21.957Z,24.63
2022-10-03T07:28:23.883Z,23.60
2022-10-03T07:31:27.632Z,24.45
2022-10-03T07:34:29.568Z,28.33
2022-10-03T07:37:26.925Z,24.15
2022-10-03T07:40:03.638Z,25.10
2022-10-03T07:42:54.502Z,24.55
2022-10-03T07:45:22.271Z,20.67
2022-10-03T07:48:17.319Z,27.85
2022-10-03T07:50:59.329Z,24.27
2022-10-03T07:53:42.033Z,30.50
2022-10-03T07:56:25.316Z,17.30
2022-10-03T07:59:20.485Z,31.38
2022-10-03T08:01:50.005Z,25.33
2022-10-03T08:04:53.784Z,22.40
2022-10-03T08:07:45.123Z,22.15
2022-10-03T08:10:43.791Z,22.05
2022-10-03T08:13:49.018Z,22.38
2022-10-03T08:16:50.422Z,25.65
2022-10-03T08:19:41.627Z,27.40
2022-10-03T08:22:26.854Z,16.80
2022-10-03T08:25:02.976Z,15.60
2022-10-03T08:27:48.120Z,15.30
2022-10-03T08:30:22.559Z,14.82
2022-10-03T08:32:57.789Z,17.65
2022-10-03T08:35:49.432Z,20.17
2022-10-03T08:41:17.987Z,17.92
2022-10-03T08:44:16.663Z,16.80
2022-10-03T08:47:04.421Z,15.85
2022-10-03T08:50:05.498Z,15.82
2022-10-03T08:53:10.962Z,19.23
2022-10-03T08:56:07.690Z,13.52
2022-10-03T08:58:59.113Z,13.27
2022-10-03T09:01:45.353Z,15.30
2022-10-03T09:04:36.680Z,13.98
2022-10-03T09:08:01.861Z,19.45
2022-10-03T09:10:37.538Z,12.55
2022-10-03T09:13:28.147Z,19.48
2022-10-03T09:16:23.711Z,17.45
2022-10-03T09:19:08.908Z,19.38
2022-10-03T09:21:41.736Z,17.63
2022-10-03T09:24:27.457Z,18.80
2022-10-03T09:27:20.346Z,14.68
2022-10-03T09:30:17.934Z,17.40
2022-10-03T09:33:05.865Z,30.83
2022-10-03T09:36:04.414Z,16.27
2022-10-03T09:38:36.704Z,11.80
2022-10-03T09:41:38.265Z,13.38
2022-10-03T09:44:29.655Z,14.07
2022-10-03T09:47:20.696Z,13.43
2022-10-03T09:50:13.501Z,14.60
2022-10-03T09:53:02.564Z,11.35
2022-10-03T09:56:01.330Z,19.27
2022-10-03T09:58:46.508Z,10.15
2022-10-03T10:01:31.323Z,10.85
2022-10-03T10:04:50.290Z,15.00
2022-10-03T10:07:40.065Z,15.32
2022-10-03T10:10:31.072Z,14.95
2022-10-03T10:13:17.083Z,11.23
2022-10-03T10:16:02.335Z,14.95
2022-10-03T10:18:50.521Z,12.77
2022-10-03T10:21:50.862Z,13.63
2022-10-03T10:24:31.221Z,9.60
2022-10-03T10:27:15.889Z,13.63
2022-10-03T10:30:00.563Z,9.00
2022-10-03T10:32:41.092Z,13.80
2022-10-03T10:35:46.623Z,7.72
2022-10-03T10:38:43.514Z,11.18
2022-10-03T10:41:18.812Z,8.45
2022-10-03T10:43:57.349Z,11.80
2022-10-03T10:46:39.984Z,6.85
2022-10-03T10:49:31.517Z,8.10
2022-10-03T10:52:04.088Z,8.63
2022-10-03T10:55:04.330Z,11.00
2022-10-03T10:58:10.234Z,5.63
2022-10-03T11:00:57.162Z,12.70
2022-10-03T11:03:42.897Z,6.05
2022-10-03T11:06:46.405Z,7.70
2022-10-03T11:09:28.888Z,11.43
2022-10-03T11:12:23.220Z,7.38
2022-10-03T11:15:27.269Z,8.18
2022-10-03T11:18:12.522Z,9.55
2022-10-03T11:21:30.305Z,4.97
2022-10-03T11:24:26.862Z,8.00
2022-10-03T11:27:21.970Z,4.75
2022-10-03T11:30:03.344Z,9.57
2022-10-03T11:32:54.141Z,11.10
2022-10-03T11:35:30.560Z,8.00
2022-10-03T11:38:16.000Z,5.10
2022-10-03T11:40:55.813Z,8.80
2022-10-03T11:43:40.079Z,8.43
2022-10-03T11:46:19.858Z,9.40
2022-10-03T11:48:53.792Z,6.90
2022-10-03T11:51:41.608Z,8.88
2022-10-03T11:54:31.054Z,10.30
2022-10-03T11:57:13.623Z,8.68
2022-10-03T12:00:00.401Z,9.23
2022-10-03T12:02:41.761Z,14.30
2022-10-03T12:05:14.329Z,9.95
2022-10-03T12:08:34.234Z,8.85
2022-10-03T12:11:27.460Z,7.43
2022-10-03T12:14:10.858Z,8.85
2022-10-03T12:16:54.112Z,7.07
2022-10-03T12:19:39.985Z,6.90
2022-10-03T12:22:33.426Z,6.22
2022-10-03T12:25:14.813Z,10.77
2022-10-03T12:27:50.820Z,9.15
2022-10-03T12:30:19.599Z,13.27
2022-10-03T12:33:17.849Z,8.90
2022-10-03T12:36:11.682Z,8.90
2022-10-03T12:38:59.780Z,12.63
2022-10-03T12:42:06.036Z,10.98
2022-10-03T12:44:56.777Z,8.23
2022-10-03T12:47:54.209Z,4.80
2022-10-03T12:50:39.681Z,10.82
2022-10-03T12:53:14.989Z,14.27
2022-10-03T12:56:15.266Z,8.80
2022-10-03T12:58:50.617Z,7.40
2022-10-03T13:01:42.506Z,7.65
2022-10-03T13:04:21.937Z,6.03
2022-10-03T13:07:15.185Z,7.50
2022-10-03T13:09:44.404Z,7.50
2022-10-03T13:12:34.172Z,7.30
2022-10-03T13:15:18.734Z,5.75
2022-10-03T13:17:55.958Z,10.07
2022-10-03T13:20:29.988Z,6.65
2022-10-03T13:23:20.019Z,5.85
2022-10-03T13:25:55.763Z,5.25
2022-10-03T13:28:33.839Z,8.77
2022-10-03T13:31:11.869Z,8.43
2022-10-03T13:33:45.002Z,7.93
2022-10-03T13:36:32.999Z,5.85
2022-10-03T13:39:07.861Z,7.93
2022-10-03T13:42:01.885Z,8.52
2022-10-03T13:44:38.101Z,5.22
2022-10-03T13:47:35.024Z,8.00
2022-10-03T13:50:06.196Z,7.93
2022-10-03T13:52:45.820Z,6.97
2022-10-03T13:55:19.969Z,8.57
2022-10-03T13:58:25.032Z,11.32
2022-10-03T14:01:03.640Z,10.35
2022-10-03T14:03:41.921Z,6.18
2022-10-03T14:06:37.408Z,6.22
2022-10-03T14:09:41.213Z,6.40
2022-10-03T14:12:54.331Z,8.60
2022-10-03T14:15:42.515Z,14.20
2022-10-03T14:18:27.516Z,5.95
2022-10-03T14:21:12.797Z,8.88
2022-10-03T14:23:48.098Z,8.32
2022-10-03T14:26:25.952Z,4.07
2022-10-03T14:28:55.312Z,6.57
2022-10-03T14:31:45.320Z,10.43
2022-10-03T14:34:53.024Z,10.52
2022-10-03T14:37:42.076Z,9.32
2022-10-03T14:40:18.727Z,4.55
2022-10-03T14:42:54.632Z,10.77
2022-10-03T14:45:29.300Z,2.50
2022-10-03T14:48:05.358Z,5.20
2022-10-03T14:50:32.102Z,8.48
2022-10-03T14:53:02.961Z,7.07
2022-10-03T14:55:38.659Z,6.15
2022-10-03T14:58:12.122Z,7.22
2022-10-03T15:00:45.780Z,6.85
2022-10-03T15:03:18.214Z,5.15
2022-10-03T15:05:56.686Z,6.65
2022-10-03T15:08:24.358Z,9.60
2022-10-03T15:10:53.727Z,11.57
2022-10-03T15:13:21.627Z,5.20
2022-10-03T15:15:49.047Z,9.38
2022-10-03T15:18:18.241Z,4.88
2022-10-03T15:20:45.781Z,12.48
2022-10-03T15:23:21.481Z,8.20
2022-10-03T15:25:52.920Z,4.53
2022-10-03T15:30:47.937Z,10.15
2022-10-03T15:33:34.109Z,8.20
2022-10-03T15:36:14.506Z,8.43
2022-10-03T15:38:43.595Z,8.50
2022-10-03T15:41:16.498Z,7.88
2022-10-03T15:44:02.410Z,11.07
2022-10-03T15:46:35.102Z,5.43
2022-10-03T15:49:24.294Z,8.07
2022-10-03T15:51:53.304Z,4.70
2022-10-03T15:54:26.643Z,6.13
2022-10-03T15:56:58.227Z,7.90
2022-10-03T15:59:37.302Z,7.47
2022-10-03T16:02:29.127Z,11.95
2022-10-03T16:04:57.722Z,8.35
2022-10-03T16:07:28.182Z,9.23
2022-10-03T16:10:14.560Z,6.63
2022-10-03T16:13:01.269Z,9.32
2022-10-03T16:15:54.674Z,5.47
2022-10-03T16:18:21.211Z,8.55
2022-10-03T16:20:55.683Z,12.45
2022-10-03T16:23:25.265Z,5.82
2022-10-03T16:25:57.261Z,6.75
2022-10-03T16:28:33.225Z,10.85
2022-10-03T16:31:03.130Z,13.35
2022-10-03T16:33:35.537Z,11.73
2022-10-03T16:36:09.392Z,5.10
2022-10-03T16:38:56.464Z,6.97
2022-10-03T16:41:28.368Z,8.93
2022-10-03T16:43:57.054Z,9.93
2022-10-03T16:46:24.223Z,8.18
2022-10-03T16:49:10.682Z,9.05
2022-10-03T16:51:42.539Z,7.03
2022-10-03T16:54:14.980Z,9.02
2022-10-03T16:56:46.084Z,8.57
2022-10-03T16:59:16.841Z,14.35
2022-10-03T17:01:49.600Z,8.38
2022-10-03T17:04:28.938Z,15.15
2022-10-03T17:06:58.611Z,29.73
2022-10-03T17:09:24.952Z,75.18
2022-10-03T17:11:54.988Z,23.48
2022-10-03T17:14:22.070Z,15.85
2022-10-03T17:17:04.590Z,11.82
2022-10-03T17:19:31.199Z,14.15
2022-10-03T17:22:22.493Z,7.60
2022-10-03T17:24:54.734Z,6.28
2022-10-03T17:27:31.548Z,6.93
2022-10-03T17:30:27.721Z,9.60
2022-10-03T17:33:01.907Z,11.18
2022-10-03T17:35:49.122Z,7.10
2022-10-03T17:39:00.621Z,7.85
2022-10-03T17:41:43.247Z,8.50
2022-10-03T17:44:19.790Z,10.00
2022-10-03T17:46:58.029Z,5.43
2022-10-03T17:49:47.545Z,8.45
2022-10-03T17:52:17.937Z,9.38
2022-10-03T17:54:47.474Z,4.97
2022-10-03T17:57:21.901Z,10.02
2022-10-03T18:00:19.408Z,9.07
2022-10-03T18:02:58.643Z,6.57
2022-10-03T18:05:28.463Z,9.38
2022-10-03T18:07:55.311Z,9.60
2022-10-03T18:10:25.443Z,9.75
2022-10-03T18:12:55.958Z,6.88
2022-10-03T18:15:39.288Z,6.93
2022-10-03T18:18:34.233Z,7.68
2022-10-03T18:21:18.732Z,19.20
2022-10-03T18:23:55.487Z,9.77
2022-10-03T18:26:28.475Z,8.50
2022-10-03T18:29:13.613Z,8.85
2022-10-03T18:31:46.569Z,11.80
2022-10-03T18:34:23.519Z,9.90
2022-10-03T18:36:53.326Z,8.35
2022-10-03T18:39:31.856Z,9.70
2022-10-03T18:42:01.303Z,7.28
2022-10-03T18:44:30.915Z,8.25
2022-10-03T18:47:35.059Z,10.75
2022-10-03T18:50:22.342Z,11.52
2022-10-03T18:52:55.294Z,7.70
2022-10-03T18:55:30.185Z,7.70
2022-10-03T18:58:13.411Z,8.95
2022-10-03T19:01:06.389Z,9.98
2022-10-03T19:03:39.079Z,11.20
2022-10-03T19:06:26.802Z,10.88
2022-10-03T19:08:57.466Z,11.63
2022-10-03T19:11:40.598Z,14.75
2022-10-03T19:14:14.765Z,16.45
2022-10-03T19:16:50.204Z,9.10
2022-10-03T19:19:35.527Z,9.88
2022-10-03T19:22:06.126Z,13.07
2022-10-03T19:24:56.580Z,8.13
2022-10-03T19:27:39.477Z,10.65
2022-10-03T19:30:07.194Z,9.02
2022-10-03T19:33:13.014Z,14.10
2022-10-03T19:35:44.794Z,12.43
2022-10-03T19:38:14.194Z,10.93
2022-10-03T19:40:49.945Z,11.00
2022-10-03T19:43:30.101Z,11.50
2022-10-03T19:46:11.691Z,14.98
2022-10-03T19:48:47.204Z,11.32
2022-10-03T19:51:23.937Z,9.85
2022-10-03T19:53:54.311Z,6.50
2022-10-03T19:56:22.328Z,12.15
2022-10-03T19:58:59.910Z,10.05
2022-10-03T20:01:27.361Z,12.00
2022-10-03T20:03:57.768Z,10.38
2022-10-03T20:06:33.206Z,11.00
2022-10-03T20:09:03.974Z,10.07
2022-10-03T20:11:42.502Z,11.43
2022-10-03T20:14:19.740Z,9.75
2022-10-03T20:16:48.105Z,10.15
2022-10-03T20:19:17.711Z,11.13
2022-10-03T20:21:54.030Z,16.23
2022-10-03T20:24:32.703Z,7.82
2022-10-03T20:27:05.146Z,6.90
2022-10-03T20:29:38.861Z,8.30
2022-10-03T20:32:06.409Z,12.65
2022-10-03T20:34:34.684Z,7.53
2022-10-03T20:37:16.486Z,11.15
2022-10-03T20:39:45.465Z,16.30
2022-10-03T20:42:26.414Z,10.10
2022-10-03T20:45:16.150Z,12.95
2022-10-03T20:47:52.058Z,8.35
2022-10-03T20:50:18.696Z,7.43
2022-10-03T20:53:00.545Z,13.77
2022-10-03T20:55:31.384Z,9.70
2022-10-03T20:58:18.338Z,9.13
2022-10-03T21:00:48.124Z,10.85
2022-10-03T21:03:18.021Z,15.35
2022-10-03T21:05:52.578Z,17.05
2022-10-03T21:08:23.664Z,15.45
2022-10-03T21:10:59.245Z,13.48
2022-10-03T21:13:43.410Z,18.80
2022-10-03T21:16:30.629Z,13.57
2022-10-03T21:19:02.630Z,15.15
2022-10-03T21:21:38.453Z,9.68
2022-10-03T21:24:28.448Z,16.30
2022-10-03T21:26:58.469Z,12.90
2022-10-03T21:29:25.128Z,13.93
2022-10-03T21:32:10.553Z,16.65
2022-10-03T21:34:47.886Z,16.35
2022-10-03T21:37:20.096Z,12.75
2022-10-03T21:39:55.660Z,9.82
2022-10-03T21:42:40.570Z,10.43
2022-10-03T21:45:20.090Z,12.95
2022-10-03T21:47:58.997Z,9.52
2022-10-03T21:50:30.175Z,9.55
2022-10-03T21:53:26.157Z,8.55
2022-10-03T21:56:21.277Z,17.40
2022-10-03T21:59:23.603Z,12.55
2022-10-03T22:01:59.830Z,8.38
2022-10-03T22:04:37.266Z,15.15
2022-10-03T22:07:18.227Z,17.17
2022-10-03T22:09:51.144Z,13.45
2022-10-03T22:12:18.217Z,19.40
2022-10-03T22:14:54.348Z,10.30
2022-10-03T22:17:32.961Z,11.80
2022-10-03T22:20:26.118Z,14.50
2022-10-03T22:23:29.827Z,6.43
2022-10-03T22:26:08.721Z,11.13
2022-10-03T22:28:47.667Z,12.63
2022-10-03T22:31:25.950Z,11.38
2022-10-03T22:34:24.890Z,5.97
2022-10-03T22:36:51.884Z,10.18
2022-10-03T22:39:19.848Z,10.82
2022-10-03T22:41:50.681Z,9.93
2022-10-03T22:44:19.637Z,14.75
2022-10-03T22:46:50.764Z,15.85
2022-10-03T22:49:29.895Z,10.63
2022-10-03T22:51:58.464Z,7.72
2022-10-03T22:54:32.762Z,12.52
2022-10-03T22:57:05.737Z,16.60
2022-10-03T22:59:41.097Z,13.75
2022-10-03T23:02:09.456Z,14.55
2022-10-03T23:04:56.175Z,23.45
2022-10-03T23:07:53.259Z,12.82
2022-10-03T23:10:35.413Z,23.75
2022-10-03T23:13:04.415Z,15.57
2022-10-03T23:15:32.539Z,15.70
2022-10-03T23:18:18.501Z,18.30
2022-10-03T23:21:02.386Z,17.42
2022-10-03T23:23:40.641Z,13.75
2022-10-03T23:26:13.458Z,19.25
2022-10-03T23:28:58.944Z,22.73
2022-10-03T23:31:59.731Z,27.23
2022-10-03T23:34:35.616Z,24.10
2022-10-03T23:37:11.309Z,26.52
2022-10-03T23:39:57.216Z,18.55
2022-10-03T23:42:31.135Z,30.00
2022-10-03T23:44:58.571Z,29.15
2022-10-03T23:47:32.623Z,22.92
2022-10-03T23:50:04.991Z,19.63
2022-10-03T23:52:45.018Z,23.50
2022-10-03T23:55:18.243Z,27.15
2022-10-03T23:57:45.255Z,24.08
